Elkfork, KY (41421)

4:07 AM EDT on July 24, 2014 (GMT -0400)
Paintsville, KY (KKYPAINT2) Elev 620 ft | 37.82 °N, 82.82 °W | Change Station

Current weather conditions updated 13 minutes ago

Overcast
Overcast
68.4 °F
Feels Like 68.4 °F
N
0.0
Wind Variable Wind from NW
Gusts 4.0 mph

Today is forecast to be Much Cooler than yesterday. Chance of showers.

Today
High -- | Low -- °F
--% Chance of Precip.
Yesterday
High -- | Low -- °F
Precip. -- in
6:28 AM 8:48 PM
Waning Crescent, 6% visible
Pressure 29.95 in
Visibility 0.2 miles
Clouds Overcast 300 ft
Dew Point 68 °F
Humidity 98%
Rainfall 0.00 in
Snow Depth Not available.
UV 0.0 out of 12
Pollen 3.30 out of 12
Air Quality Not available.
Flu Activity Not available.
METAR KSJS 240755Z AUTO 00000KT 1/4SM FG OVC003 20/20 A2995 RMK AO2 T02010201

More Conditions Fewer Conditions

Pressure 29.95 in
Visibility 0.2 miles
Clouds Overcast 300 ft
Dew Point 68 °F
Humidity 98%
Rainfall 0.00 in
Snow Depth Not available.
UV 0.0 out of 12
Pollen 3.30 out of 12
Air Quality Not available.
Flu Activity Not available.
METAR KSJS 240755Z AUTO 00000KT 1/4SM FG OVC003 20/20 A2995 RMK AO2 T02010201

More Conditions Fewer Conditions

10-Day Weather Forecast

Almanac

Astronomy

Jul. 24, 2014 Rise Set
Actual Time 6:28 AM EDT 8:48 PM EDT
Civil Twilight 5:58 AM EDT 9:18 PM EDT
Nautical Twilight 5:22 AM EDT 9:54 PM EDT
Astronomical Twilight 4:41 AM EDT 10:34 PM EDT
Moon 4:35 AM EDT 7:03 PM EDT
Length of Visible Light 15h 19m
Length of Day
14h 19m
Tomorrow will be 1m 36s shorter.
Waning Crescent, 6% of the Moon is Illuminated
Today
Waning Crescent
Jul 26
New
Aug 3
First Quarter
Aug 10
Full
Aug 17
Last Quarter

Today's Extremes

State Highs State Lows

Community

WunderPhotos

Upload Photos

1,736,950 photos uploaded!

Nearby

Snow Depth

Station Depth Elevation
No new snow has been reported.

Earthquake Activity

City Distance Mag. Time & Date
No recent earthquake activity has been reported nearby.
Minimum magnitude displayed is 2.5.

Coastal Water Temperatures

Place Temperature
No Stations Reporting

Nearby Weather Stations

Station Location Temp. Heat Index Dew Point Humidity Wind Precip. Elev Updated Type
Paintsville, KY, Paintsville, KY 68.4 °F - 68 °F 98% NW  at  0.0 mph 0.00 in / hr 620 ft 3:53 AM EDT Normal
Green, Olive Hill, KY 70.5 °F 75 °F 59 °F 66% North  at  0.0 mph 0.00 in / hr 883 ft 4:01 AM EDT Normal
Middle Creek Battlefield Area, Prestonsburg, KY 68.0 °F - 65 °F 89% North  at  0.0 mph 0.00 in / hr 728 ft 4:07 AM EDT Rapid Fire
Middle Creek VFD Station 2, Prestonsburg, KY 69.2 °F - 68 °F 96% North  at  0.0 mph - / hr 689 ft 3:57 AM EDT Normal
RAWS TRIANGLE MTN KY, Morehead, KY 70 °F - 69 °F 96% NNW  at  1 mph 0.00 in / hr 1359 ft 3:02 AM EDT MADIS

Show More Stations Show Fewer Stations